createdAt,value
2017-05-14T00:01:16.385Z,78.80
2017-05-14T00:03:44.703Z,79.00
2017-05-14T00:06:13.018Z,79.00
2017-05-14T00:08:41.370Z,78.90
2017-05-14T00:11:10.429Z,78.60
2017-05-14T00:13:39.490Z,78.50
2017-05-14T00:16:07.842Z,78.70
2017-05-14T00:18:36.158Z,78.70
2017-05-14T00:21:04.458Z,78.80
2017-05-14T00:23:33.531Z,78.40
2017-05-14T00:26:01.842Z,78.10
2017-05-14T00:28:30.154Z,77.70
2017-05-14T00:30:58.493Z,77.20
2017-05-14T00:33:26.791Z,77.20
2017-05-14T00:35:55.093Z,77.10
2017-05-14T00:38:23.443Z,77.30
2017-05-14T00:40:51.745Z,77.70
2017-05-14T00:43:20.055Z,77.80
2017-05-14T00:45:48.396Z,77.90
2017-05-14T00:48:16.723Z,77.90
2017-05-14T00:50:45.773Z,77.90
2017-05-14T00:53:14.127Z,77.90
2017-05-14T00:55:42.427Z,78.10
2017-05-14T00:58:10.734Z,78.30
2017-05-14T01:00:39.076Z,78.40
2017-05-14T01:03:07.372Z,78.50
2017-05-14T01:05:35.667Z,78.50
2017-05-14T01:08:04.000Z,78.60
2017-05-14T01:10:32.319Z,79.10
2017-05-14T01:13:00.632Z,79.60
2017-05-14T01:15:29.710Z,79.90
2017-05-14T01:17:58.026Z,80.10
2017-05-14T01:20:26.344Z,80.20
2017-05-14T01:22:54.700Z,80.20
2017-05-14T01:25:23.015Z,80.10
2017-05-14T01:27:51.330Z,79.90
2017-05-14T01:30:19.671Z,79.60
2017-05-14T01:32:47.972Z,79.00
2017-05-14T01:35:17.023Z,78.80
2017-05-14T01:37:45.398Z,78.80
2017-05-14T01:40:13.733Z,78.60
2017-05-14T01:42:42.787Z,78.50
2017-05-14T01:45:11.127Z,78.20
2017-05-14T01:47:39.444Z,77.70
2017-05-14T01:50:07.762Z,78.40
2017-05-14T01:52:36.107Z,77.80
2017-05-14T01:55:05.164Z,77.70
2017-05-14T01:57:33.460Z,77.30
2017-05-14T02:00:02.555Z,77.50
2017-05-14T02:02:30.869Z,76.90
2017-05-14T02:04:59.167Z,76.80
2017-05-14T02:07:27.517Z,76.90
2017-05-14T02:09:55.826Z,77.70
2017-05-14T02:12:24.119Z,77.10
2017-05-14T02:14:52.473Z,77.30
2017-05-14T02:17:20.790Z,77.60
2017-05-14T02:19:49.103Z,77.60
2017-05-14T02:22:17.453Z,79.10
2017-05-14T02:24:45.770Z,79.00
2017-05-14T02:27:14.066Z,79.90
2017-05-14T02:29:43.150Z,80.50
2017-05-14T02:32:11.463Z,81.00
2017-05-14T02:34:39.773Z,82.00
2017-05-14T02:37:08.126Z,82.40
2017-05-14T02:39:36.440Z,82.30
2017-05-14T02:42:05.475Z,82.30
2017-05-14T02:44:33.822Z,81.90
2017-05-14T02:47:02.860Z,82.20
2017-05-14T02:49:31.170Z,82.50
2017-05-14T02:51:59.510Z,83.10
2017-05-14T02:54:27.832Z,83.70
2017-05-14T02:56:56.886Z,83.90
2017-05-14T02:59:25.246Z,84.00
2017-05-14T03:01:53.563Z,83.30
2017-05-14T03:04:21.876Z,83.60
2017-05-14T03:06:50.235Z,83.50
2017-05-14T03:09:18.554Z,83.60
2017-05-14T03:11:47.606Z,83.20
2017-05-14T03:14:15.968Z,83.20
2017-05-14T03:16:44.263Z,83.00
2017-05-14T03:19:12.570Z,82.90
2017-05-14T03:21:41.658Z,82.90
2017-05-14T03:24:09.975Z,82.20
2017-05-14T03:26:38.287Z,82.00
2017-05-14T03:29:06.646Z,82.20
2017-05-14T03:31:34.961Z,82.50
2017-05-14T03:34:03.322Z,83.00
2017-05-14T03:36:31.658Z,83.80
2017-05-14T03:38:59.966Z,84.20
2017-05-14T03:41:28.271Z,83.80
2017-05-14T03:43:56.598Z,83.70
2017-05-14T03:46:24.915Z,84.00
2017-05-14T03:48:53.226Z,85.40
2017-05-14T03:51:21.577Z,84.70
2017-05-14T03:53:49.883Z,85.00
2017-05-14T03:56:18.175Z,85.00
2017-05-14T03:58:46.534Z,85.20
2017-05-14T04:01:14.847Z,85.20
2017-05-14T04:03:43.887Z,84.90
2017-05-14T04:06:12.240Z,85.20
2017-05-14T04:08:40.549Z,84.70
2017-05-14T04:11:09.599Z,84.60
2017-05-14T04:13:37.925Z,84.10
2017-05-14T04:16:06.238Z,84.00
2017-05-14T04:18:34.546Z,84.10
2017-05-14T04:21:03.665Z,84.00
2017-05-14T04:23:32.695Z,84.20
2017-05-14T04:26:01.006Z,83.90
2017-05-14T04:28:29.357Z,83.60
2017-05-14T04:30:57.660Z,83.30
2017-05-14T04:33:25.973Z,83.00
2017-05-14T04:35:54.315Z,82.90
2017-05-14T04:38:22.625Z,83.00
2017-05-14T04:40:50.941Z,83.50
2017-05-14T04:43:19.295Z,83.50
2017-05-14T04:45:48.327Z,83.70
2017-05-14T04:48:16.633Z,84.00
2017-05-14T04:50:44.984Z,84.10
2017-05-14T04:53:13.295Z,84.60
2017-05-14T04:55:41.587Z,84.60
2017-05-14T04:58:09.933Z,84.30
2017-05-14T05:00:38.243Z,84.90
2017-05-14T05:03:07.312Z,84.70
2017-05-14T05:05:35.664Z,84.50
2017-05-14T05:08:03.962Z,84.10
2017-05-14T05:10:32.274Z,83.50
2017-05-14T05:13:00.614Z,84.10
2017-05-14T05:15:28.898Z,84.10
2017-05-14T05:17:57.210Z,84.80
2017-05-14T05:20:25.542Z,83.30
2017-05-14T05:22:53.852Z,82.80
2017-05-14T05:25:22.170Z,81.50
2017-05-14T05:27:51.254Z,81.10
2017-05-14T05:30:19.569Z,81.10
2017-05-14T05:32:47.859Z,80.90
2017-05-14T05:35:16.207Z,80.60
2017-05-14T05:37:45.262Z,80.60
2017-05-14T05:40:13.569Z,80.30
2017-05-14T05:42:41.918Z,80.00
2017-05-14T05:45:10.234Z,80.50
2017-05-14T05:47:38.553Z,79.80
2017-05-14T05:50:06.871Z,78.90
2017-05-14T05:52:35.187Z,79.00
2017-05-14T05:55:03.502Z,78.60
2017-05-14T05:57:31.834Z,78.40
2017-05-14T06:00:00.117Z,77.90
2017-05-14T06:02:28.430Z,77.40
2017-05-14T06:04:56.763Z,76.80
2017-05-14T06:07:25.070Z,76.40
2017-05-14T06:09:53.381Z,76.20
2017-05-14T06:12:22.472Z,76.20
2017-05-14T06:14:51.502Z,75.80
2017-05-14T06:17:19.789Z,75.00
2017-05-14T06:19:48.129Z,74.20
2017-05-14T06:22:16.437Z,73.70
2017-05-14T06:24:44.751Z,68.90
2017-05-14T06:27:13.118Z,63.90
2017-05-14T06:29:41.415Z,58.40
2017-05-14T06:32:09.722Z,55.90
2017-05-14T06:34:38.071Z,56.50
2017-05-14T06:37:06.396Z,58.20
2017-05-14T06:39:34.717Z,58.50
2017-05-14T06:42:03.067Z,58.50
2017-05-14T06:44:31.376Z,55.00
2017-05-14T06:46:59.675Z,52.80
2017-05-14T06:49:28.004Z,52.80
2017-05-14T06:51:56.319Z,53.30
2017-05-14T06:54:24.629Z,52.90
2017-05-14T06:56:53.721Z,51.10
2017-05-14T06:59:22.775Z,47.90
2017-05-14T07:01:51.118Z,47.60
2017-05-14T07:04:19.473Z,49.00
2017-05-14T07:06:48.526Z,51.50
2017-05-14T07:09:16.837Z,52.00
2017-05-14T07:11:45.896Z,53.60
2017-05-14T07:14:14.215Z,53.70
2017-05-14T07:16:43.601Z,52.60
2017-05-14T07:19:12.715Z,52.60
2017-05-14T07:21:41.770Z,53.90
2017-05-14T07:24:10.094Z,56.10
2017-05-14T07:26:38.436Z,56.10
2017-05-14T07:29:06.754Z,55.80
2017-05-14T07:31:35.066Z,55.40
2017-05-14T07:34:04.139Z,54.20
2017-05-14T07:36:32.439Z,53.40
2017-05-14T07:39:01.494Z,52.80
2017-05-14T07:41:29.828Z,51.70
2017-05-14T07:43:58.141Z,53.20
2017-05-14T07:46:27.190Z,53.60
2017-05-14T07:48:55.551Z,54.80
2017-05-14T07:51:23.894Z,54.90
2017-05-14T07:53:52.942Z,55.60
2017-05-14T07:56:21.301Z,55.70
2017-05-14T07:58:49.616Z,55.90
2017-05-14T08:01:17.906Z,56.80
2017-05-14T08:03:46.994Z,56.90
2017-05-14T08:06:16.054Z,56.80
2017-05-14T08:08:44.370Z,55.90
2017-05-14T08:11:13.430Z,55.80
2017-05-14T08:13:41.741Z,56.80
2017-05-14T08:16:10.772Z,56.10
2017-05-14T08:18:39.122Z,53.40
2017-05-14T08:21:08.176Z,52.20
2017-05-14T08:23:36.485Z,51.40
2017-05-14T08:26:04.824Z,50.60
2017-05-14T08:28:33.136Z,49.10
2017-05-14T08:31:02.170Z,49.50
2017-05-14T08:33:30.520Z,50.10
2017-05-14T08:35:58.840Z,49.70
2017-05-14T08:38:27.164Z,49.30
2017-05-14T08:40:56.253Z,48.10
2017-05-14T08:43:25.291Z,48.90
2017-05-14T08:45:53.594Z,51.80
2017-05-14T08:48:21.935Z,51.50
2017-05-14T08:50:50.252Z,51.30
2017-05-14T08:53:18.546Z,51.30
2017-05-14T08:55:46.887Z,50.10
2017-05-14T08:58:15.199Z,50.50
2017-05-14T09:00:43.522Z,50.00
2017-05-14T09:03:11.873Z,50.50
2017-05-14T09:05:40.930Z,51.40
2017-05-14T09:08:09.242Z,50.50
2017-05-14T09:10:38.311Z,50.80
2017-05-14T09:13:06.619Z,51.70
2017-05-14T09:15:35.673Z,51.90
2017-05-14T09:18:04.053Z,52.00
2017-05-14T09:20:32.363Z,52.80
2017-05-14T09:23:01.108Z,52.50
2017-05-14T09:25:29.457Z,52.60
2017-05-14T09:27:58.498Z,51.50
2017-05-14T09:30:26.814Z,51.80
2017-05-14T09:32:55.136Z,52.70
2017-05-14T09:35:23.446Z,51.70
2017-05-14T09:37:51.759Z,52.80
2017-05-14T09:40:20.114Z,53.10
2017-05-14T09:42:48.431Z,53.00
2017-05-14T09:45:17.486Z,52.60
2017-05-14T09:47:45.835Z,51.60
2017-05-14T09:50:14.127Z,52.10
2017-05-14T09:52:42.417Z,51.30
2017-05-14T09:55:11.499Z,52.20
2017-05-14T09:57:39.812Z,53.10
2017-05-14T10:00:08.134Z,53.30
2017-05-14T10:02:36.470Z,53.50
2017-05-14T10:05:04.787Z,53.30
2017-05-14T10:07:33.105Z,53.40
2017-05-14T10:10:01.439Z,52.10
2017-05-14T10:12:29.755Z,52.20
2017-05-14T10:14:58.051Z,51.30
2017-05-14T10:17:26.374Z,51.60
2017-05-14T10:19:54.685Z,51.10
2017-05-14T10:22:23.741Z,51.00
2017-05-14T10:24:52.089Z,50.00
2017-05-14T10:27:20.397Z,49.50
2017-05-14T10:29:48.705Z,49.50
2017-05-14T10:32:17.041Z,49.50
2017-05-14T10:34:45.364Z,48.70
2017-05-14T10:37:14.422Z,47.30
2017-05-14T10:39:42.757Z,47.00
2017-05-14T10:42:11.073Z,46.90
2017-05-14T10:44:40.125Z,47.80
2017-05-14T10:47:08.454Z,46.80
2017-05-14T10:49:37.486Z,43.70
2017-05-14T10:52:05.831Z,46.10
2017-05-14T10:54:34.867Z,45.50
2017-05-14T10:57:03.178Z,46.50
2017-05-14T10:59:31.533Z,44.70
2017-05-14T11:01:59.846Z,43.90
2017-05-14T11:04:28.162Z,44.30
2017-05-14T11:06:56.518Z,42.20
2017-05-14T11:09:25.594Z,42.70
2017-05-14T11:11:54.615Z,39.90
2017-05-14T11:14:22.969Z,40.00
2017-05-14T11:16:52.022Z,38.50
2017-05-14T11:19:20.338Z,38.70
2017-05-14T11:21:49.438Z,40.40
2017-05-14T11:24:18.493Z,36.80
2017-05-14T11:26:46.806Z,36.00
2017-05-14T11:29:15.894Z,36.00
2017-05-14T11:31:44.950Z,37.10
2017-05-14T11:34:13.251Z,36.10
2017-05-14T11:36:41.597Z,35.60
2017-05-14T11:39:09.890Z,34.80
2017-05-14T11:41:38.203Z,31.60
2017-05-14T11:44:07.272Z,31.00
2017-05-14T11:46:35.634Z,32.80
2017-05-14T11:49:03.947Z,29.60
2017-05-14T11:51:33.020Z,33.80
2017-05-14T11:54:01.348Z,33.80
2017-05-14T11:56:29.659Z,31.60
2017-05-14T11:58:58.019Z,29.40
2017-05-14T12:01:26.325Z,30.30
2017-05-14T12:03:54.639Z,29.20
2017-05-14T12:06:23.734Z,33.70
2017-05-14T12:08:52.775Z,34.60
2017-05-14T12:11:21.095Z,31.30
2017-05-14T12:13:49.450Z,31.30
2017-05-14T12:16:17.767Z,35.10
2017-05-14T12:18:46.078Z,31.50
2017-05-14T12:21:14.426Z,30.20
2017-05-14T12:23:43.485Z,32.60
2017-05-14T12:26:11.803Z,28.90
2017-05-14T12:28:40.894Z,30.00
2017-05-14T12:31:09.227Z,33.20
2017-05-14T12:33:37.537Z,31.30
2017-05-14T12:36:05.877Z,31.20
2017-05-14T12:38:34.189Z,32.50
2017-05-14T12:41:02.501Z,31.90
2017-05-14T12:43:31.578Z,33.30
2017-05-14T12:45:59.896Z,34.40
2017-05-14T12:48:28.214Z,37.00
2017-05-14T12:50:56.570Z,38.20
2017-05-14T12:53:24.882Z,37.90
2017-05-14T12:55:53.199Z,31.80
2017-05-14T12:58:25.097Z,36.20
2017-05-14T13:00:53.454Z,31.60
2017-05-14T13:03:22.829Z,33.10
2017-05-14T13:05:51.181Z,31.40
2017-05-14T13:08:19.494Z,32.90
2017-05-14T13:10:47.816Z,32.50
2017-05-14T13:13:16.167Z,31.80
2017-05-14T13:15:45.209Z,29.40
2017-05-14T13:18:13.526Z,31.20
2017-05-14T13:20:42.609Z,30.40
2017-05-14T13:23:10.919Z,31.40
2017-05-14T13:25:39.234Z,29.70
2017-05-14T13:28:07.580Z,29.70
2017-05-14T13:30:36.623Z,32.00
2017-05-14T13:33:04.935Z,32.10
2017-05-14T13:35:34.011Z,32.80
2017-05-14T13:38:02.311Z,31.90
2017-05-14T13:40:31.350Z,32.30
2017-05-14T13:42:59.697Z,32.00
2017-05-14T13:45:27.242Z,31.90
2017-05-14T13:47:56.299Z,36.80
2017-05-14T13:50:24.649Z,38.20
2017-05-14T13:52:52.962Z,39.10
2017-05-14T13:55:21.280Z,42.10
2017-05-14T13:57:50.354Z,36.30
2017-05-14T14:00:18.674Z,36.80
2017-05-14T14:02:47.038Z,45.20
2017-05-14T14:05:15.363Z,46.10
2017-05-14T14:07:43.682Z,45.50
2017-05-14T14:10:12.036Z,45.70
2017-05-14T14:12:41.102Z,45.10
2017-05-14T14:15:09.417Z,47.50
2017-05-14T14:17:37.775Z,45.20
2017-05-14T14:20:06.829Z,47.00
2017-05-14T14:22:35.157Z,47.90
2017-05-14T14:25:03.509Z,47.50
2017-05-14T14:27:31.799Z,47.80
2017-05-14T14:30:00.839Z,45.50
2017-05-14T14:32:29.179Z,46.50
2017-05-14T14:34:58.230Z,46.40
2017-05-14T14:37:26.541Z,46.40
2017-05-14T14:39:55.629Z,47.70
2017-05-14T14:42:23.941Z,46.60
2017-05-14T14:44:52.249Z,46.10
2017-05-14T14:47:20.595Z,47.20
2017-05-14T14:49:48.897Z,48.00
2017-05-14T14:52:17.188Z,49.50
2017-05-14T14:54:45.940Z,51.80
2017-05-14T14:57:14.263Z,54.00
2017-05-14T14:59:42.592Z,55.40
2017-05-14T15:02:10.946Z,56.50
2017-05-14T15:04:39.240Z,56.20
2017-05-14T15:07:07.567Z,53.80
2017-05-14T15:09:35.992Z,53.20
2017-05-14T15:12:04.290Z,53.80
2017-05-14T15:14:33.334Z,53.90
2017-05-14T15:17:01.685Z,54.20
2017-05-14T15:19:30.005Z,52.70
2017-05-14T15:21:58.322Z,53.60
2017-05-14T15:24:27.414Z,51.90
2017-05-14T15:26:56.462Z,52.80
2017-05-14T15:29:24.774Z,51.50
2017-05-14T15:31:53.115Z,51.40
2017-05-14T15:34:21.430Z,50.30
2017-05-14T15:36:49.734Z,50.80
2017-05-14T15:39:18.818Z,51.70
2017-05-14T15:41:47.133Z,52.70
2017-05-14T15:44:15.449Z,52.00
2017-05-14T15:46:43.821Z,50.80
2017-05-14T15:49:12.174Z,51.00
2017-05-14T15:51:40.489Z,51.20
2017-05-14T15:54:08.834Z,51.40
2017-05-14T15:56:37.150Z,52.20
2017-05-14T15:59:05.464Z,52.20
2017-05-14T16:01:34.553Z,53.30
2017-05-14T16:04:02.867Z,52.00
2017-05-14T16:06:31.196Z,51.70
2017-05-14T16:08:59.550Z,51.90
2017-05-14T16:11:27.870Z,52.00
2017-05-14T16:13:56.175Z,49.70
2017-05-14T16:16:24.523Z,50.60
2017-05-14T16:18:52.838Z,50.50
2017-05-14T16:21:21.167Z,51.80
2017-05-14T16:23:49.527Z,51.00
2017-05-14T16:26:17.846Z,50.50
2017-05-14T16:28:46.911Z,50.80
2017-05-14T16:31:15.285Z,51.00
2017-05-14T16:33:43.578Z,50.80
2017-05-14T16:36:11.897Z,51.30
2017-05-14T16:38:40.233Z,52.00
2017-05-14T16:41:08.538Z,51.50
2017-05-14T16:43:36.851Z,50.70
2017-05-14T16:46:05.940Z,52.00
2017-05-14T16:48:34.254Z,52.30
2017-05-14T16:51:02.566Z,53.70
2017-05-14T16:53:30.921Z,53.70
2017-05-14T16:55:59.235Z,53.30
2017-05-14T16:58:27.541Z,53.40
2017-05-14T17:00:56.615Z,53.10
2017-05-14T17:03:24.907Z,53.70
2017-05-14T17:05:53.222Z,55.30
2017-05-14T17:08:21.571Z,54.90
2017-05-14T17:10:49.869Z,55.80
2017-05-14T17:13:18.179Z,56.20
2017-05-14T17:15:46.533Z,56.70
2017-05-14T17:18:14.854Z,57.20
2017-05-14T17:20:43.186Z,56.70
2017-05-14T17:23:11.564Z,56.40
2017-05-14T17:25:39.863Z,54.80
2017-05-14T17:28:08.170Z,55.00
2017-05-14T17:30:36.501Z,56.50
2017-05-14T17:33:04.814Z,55.40
2017-05-14T17:35:33.875Z,55.50
2017-05-14T17:38:02.187Z,55.30
2017-05-14T17:40:30.482Z,55.50
2017-05-14T17:42:58.837Z,55.10
2017-05-14T17:45:27.159Z,55.10
2017-05-14T17:47:56.213Z,56.30
2017-05-14T17:50:24.560Z,56.90
2017-05-14T17:52:53.595Z,57.60
2017-05-14T17:55:21.892Z,59.10
2017-05-14T17:57:50.239Z,60.80
2017-05-14T18:00:18.569Z,62.80
2017-05-14T18:02:46.891Z,63.60
2017-05-14T18:05:15.229Z,63.70
2017-05-14T18:07:43.548Z,64.30
2017-05-14T18:10:11.879Z,64.90
2017-05-14T18:12:40.229Z,66.40
2017-05-14T18:15:08.531Z,66.50
2017-05-14T18:17:37.677Z,66.90
2017-05-14T18:20:06.029Z,66.70
2017-05-14T18:22:34.344Z,66.70
2017-05-14T18:25:02.661Z,66.80
2017-05-14T18:27:31.011Z,67.50
2017-05-14T18:29:59.330Z,67.00
2017-05-14T18:32:27.641Z,67.70
2017-05-14T18:34:55.982Z,68.10
2017-05-14T18:37:24.280Z,68.20
2017-05-14T18:39:52.594Z,68.10
2017-05-14T18:42:20.926Z,68.40
2017-05-14T18:44:49.232Z,68.60
2017-05-14T18:47:17.554Z,68.50
2017-05-14T18:49:45.888Z,69.00
2017-05-14T18:52:14.198Z,69.60
2017-05-14T18:54:42.501Z,69.90
2017-05-14T18:57:10.850Z,70.70
2017-05-14T18:59:39.145Z,71.30
2017-05-14T19:02:07.461Z,71.60
2017-05-14T19:04:36.545Z,71.50
2017-05-14T19:07:05.587Z,72.30
2017-05-14T19:09:33.875Z,72.30
2017-05-14T19:12:02.221Z,72.30
2017-05-14T19:14:30.520Z,72.00
2017-05-14T19:16:58.830Z,71.90
2017-05-14T19:19:27.161Z,72.00
2017-05-14T19:21:55.458Z,71.90
2017-05-14T19:24:23.805Z,71.90
2017-05-14T19:26:52.106Z,71.90
2017-05-14T19:29:20.432Z,72.20
2017-05-14T19:31:48.790Z,72.00
2017-05-14T19:34:17.099Z,72.10
2017-05-14T19:36:46.153Z,71.90
2017-05-14T19:39:14.502Z,72.10
2017-05-14T19:41:42.814Z,73.20
2017-05-14T19:44:11.147Z,73.70
2017-05-14T19:46:39.476Z,74.10
2017-05-14T19:49:07.784Z,74.60
2017-05-14T19:51:36.098Z,75.30
2017-05-14T19:54:04.441Z,75.20
2017-05-14T19:56:32.757Z,74.40
2017-05-14T19:59:01.070Z,72.80
2017-05-14T20:01:29.382Z,72.40
2017-05-14T20:03:58.422Z,73.10
2017-05-14T20:06:26.767Z,73.40
2017-05-14T20:08:55.818Z,73.90
2017-05-14T20:11:24.126Z,74.20
2017-05-14T20:13:53.217Z,74.30
2017-05-14T20:16:21.537Z,74.70
2017-05-14T20:18:49.847Z,74.70
2017-05-14T20:21:18.162Z,74.90
2017-05-14T20:23:47.210Z,75.10
2017-05-14T20:26:15.526Z,74.90
2017-05-14T20:28:44.614Z,75.00
2017-05-14T20:31:12.902Z,74.80
2017-05-14T20:33:41.947Z,74.80
2017-05-14T20:36:10.301Z,73.90
2017-05-14T20:38:38.610Z,74.40
2017-05-14T20:41:06.922Z,74.80
2017-05-14T20:43:35.275Z,75.60
2017-05-14T20:46:03.570Z,76.20
2017-05-14T20:48:31.878Z,76.20
2017-05-14T20:51:00.231Z,76.70
2017-05-14T20:53:28.520Z,76.80
2017-05-14T20:55:57.569Z,77.20
2017-05-14T20:58:25.921Z,77.30
2017-05-14T21:00:54.241Z,77.30
2017-05-14T21:03:22.539Z,77.30
2017-05-14T21:05:50.870Z,77.20
2017-05-14T21:08:19.473Z,77.60
2017-05-14T21:10:48.531Z,77.80
2017-05-14T21:13:16.882Z,77.40
2017-05-14T21:15:45.202Z,78.20
2017-05-14T21:18:13.518Z,77.70
2017-05-14T21:20:42.578Z,78.20
2017-05-14T21:23:10.890Z,78.60
2017-05-14T21:25:39.952Z,78.80
2017-05-14T21:28:08.298Z,79.00
2017-05-14T21:30:36.587Z,78.20
2017-05-14T21:33:04.880Z,78.10
2017-05-14T21:35:33.195Z,77.80
2017-05-14T21:38:01.507Z,77.90
2017-05-14T21:40:29.797Z,78.80
2017-05-14T21:42:58.147Z,78.80
2017-05-14T21:45:27.207Z,79.20
2017-05-14T21:47:55.526Z,79.10
2017-05-14T21:50:24.613Z,78.00
2017-05-14T21:52:52.923Z,77.70
2017-05-14T21:55:21.240Z,77.10
2017-05-14T21:57:49.590Z,76.80
2017-05-14T22:00:17.898Z,77.00
2017-05-14T22:02:46.205Z,77.50
2017-05-14T22:05:15.285Z,78.80
2017-05-14T22:07:43.681Z,78.50
2017-05-14T22:10:11.993Z,78.60
2017-05-14T22:12:40.342Z,79.50
2017-05-14T22:15:08.655Z,79.70
2017-05-14T22:17:36.958Z,80.10
2017-05-14T22:20:06.023Z,80.30
2017-05-14T22:22:34.330Z,80.10
2017-05-14T22:25:02.641Z,80.60
2017-05-14T22:27:30.985Z,79.20
2017-05-14T22:29:59.303Z,79.50
2017-05-14T22:32:27.618Z,78.80
2017-05-14T22:34:55.951Z,79.20
2017-05-14T22:37:24.275Z,79.50
2017-05-14T22:39:52.590Z,79.80
2017-05-14T22:42:20.938Z,80.50
2017-05-14T22:44:49.262Z,80.30
2017-05-14T22:47:17.573Z,80.20
2017-05-14T22:49:45.910Z,80.20
2017-05-14T22:52:14.221Z,80.00
2017-05-14T22:54:42.531Z,80.00
2017-05-14T22:57:10.877Z,80.80
2017-05-14T22:59:39.200Z,80.70
2017-05-14T23:02:07.515Z,80.50
2017-05-14T23:04:35.851Z,80.20
2017-05-14T23:07:04.144Z,80.60
2017-05-14T23:09:32.453Z,79.70
2017-05-14T23:12:00.801Z,78.90
2017-05-14T23:14:29.115Z,76.60
2017-05-14T23:16:57.427Z,77.10
2017-05-14T23:19:25.782Z,77.20
2017-05-14T23:21:54.097Z,79.00
2017-05-14T23:24:23.153Z,80.10
2017-05-14T23:26:51.491Z,80.20
2017-05-14T23:29:19.805Z,78.90
2017-05-14T23:31:48.122Z,78.40
2017-05-14T23:34:17.196Z,76.30
2017-05-14T23:36:45.513Z,76.10
2017-05-14T23:39:13.831Z,76.50
2017-05-14T23:41:42.173Z,77.80
2017-05-14T23:44:10.488Z,78.90
2017-05-14T23:46:38.806Z,79.80
2017-05-14T23:49:07.887Z,81.00
2017-05-14T23:51:36.200Z,80.30
2017-05-14T23:54:04.519Z,77.50
2017-05-14T23:56:32.872Z,77.60
2017-05-14T23:59:01.184Z,79.10
